createdAt,value
2018-11-28T00:00:23.195Z,4.60
2018-11-28T00:02:50.366Z,4.60
2018-11-28T00:05:17.592Z,4.40
2018-11-28T00:07:44.752Z,4.40
2018-11-28T00:10:13.228Z,4.40
2018-11-28T00:12:40.675Z,4.20
2018-11-28T00:15:10.968Z,4.20
2018-11-28T00:17:38.180Z,4.20
2018-11-28T00:20:10.618Z,4.10
2018-11-28T00:22:37.768Z,4.00
2018-11-28T00:25:05.641Z,3.90
2018-11-28T00:27:32.756Z,3.90
2018-11-28T00:29:59.879Z,3.80
2018-11-28T00:32:26.993Z,3.80
2018-11-28T00:34:54.124Z,3.70
2018-11-28T00:37:21.260Z,3.70
2018-11-28T00:39:48.408Z,3.90
2018-11-28T00:42:15.622Z,4.00
2018-11-28T00:44:42.763Z,3.90
2018-11-28T00:47:09.908Z,4.00
2018-11-28T00:49:37.012Z,4.00
2018-11-28T00:52:04.480Z,3.90
2018-11-28T00:54:31.601Z,3.80
2018-11-28T00:56:58.741Z,3.80
2018-11-28T00:59:25.865Z,3.80
2018-11-28T01:01:53.013Z,3.90
2018-11-28T01:04:20.169Z,4.00
2018-11-28T01:06:47.331Z,4.00
2018-11-28T01:09:14.468Z,3.80
2018-11-28T01:11:41.585Z,3.70
2018-11-28T01:14:08.903Z,3.40
2018-11-28T01:16:36.077Z,3.30
2018-11-28T01:19:03.409Z,3.30
2018-11-28T01:21:30.533Z,3.40
2018-11-28T01:23:57.667Z,3.50
2018-11-28T01:26:24.832Z,3.50
2018-11-28T01:28:51.972Z,3.50
2018-11-28T01:31:19.116Z,3.50
2018-11-28T01:33:46.280Z,3.40
2018-11-28T01:36:13.416Z,3.40
2018-11-28T01:38:40.529Z,3.30
2018-11-28T01:41:07.656Z,3.20
2018-11-28T01:43:34.802Z,3.20
2018-11-28T01:46:01.932Z,3.20
2018-11-28T01:48:29.092Z,3.20
2018-11-28T01:50:56.221Z,3.20
2018-11-28T01:53:23.376Z,3.10
2018-11-28T01:55:50.581Z,3.00
2018-11-28T01:58:17.719Z,2.90
2018-11-28T02:00:44.894Z,2.90
2018-11-28T02:03:12.020Z,2.90
2018-11-28T02:05:39.186Z,2.90
2018-11-28T02:08:06.335Z,2.90
2018-11-28T02:10:33.473Z,3.00
2018-11-28T02:13:00.612Z,2.90
2018-11-28T02:15:27.986Z,3.00
2018-11-28T02:17:56.087Z,3.10
2018-11-28T02:20:23.276Z,3.10
2018-11-28T02:22:50.436Z,3.10
2018-11-28T02:25:17.713Z,3.10
2018-11-28T02:27:45.497Z,3.20
2018-11-28T02:30:14.321Z,3.30
2018-11-28T02:32:41.520Z,3.30
2018-11-28T02:35:09.770Z,3.40
2018-11-28T02:37:37.447Z,3.30
2018-11-28T02:40:06.370Z,3.30
2018-11-28T02:42:33.500Z,3.30
2018-11-28T02:45:00.633Z,3.30
2018-11-28T02:47:27.779Z,3.50
2018-11-28T02:49:54.907Z,3.40
2018-11-28T02:52:22.043Z,3.40
2018-11-28T02:54:49.252Z,3.50
2018-11-28T02:57:16.419Z,3.50
2018-11-28T02:59:43.633Z,3.50
2018-11-28T03:02:10.821Z,3.60
2018-11-28T03:04:37.959Z,3.60
2018-11-28T03:07:05.425Z,3.80
2018-11-28T03:09:32.600Z,3.70
2018-11-28T03:11:59.753Z,3.80
2018-11-28T03:14:26.892Z,3.80
2018-11-28T03:16:54.076Z,3.80
2018-11-28T03:19:21.193Z,3.70
2018-11-28T03:21:48.395Z,3.70
2018-11-28T03:24:15.538Z,3.80
2018-11-28T03:26:42.717Z,3.70
2018-11-28T03:29:09.853Z,3.70
2018-11-28T03:31:37.034Z,3.70
2018-11-28T03:34:04.865Z,3.80
2018-11-28T03:36:32.017Z,3.80
2018-11-28T03:38:59.144Z,3.90
2018-11-28T03:41:26.272Z,4.00
2018-11-28T03:43:53.397Z,4.00
2018-11-28T03:46:20.533Z,4.10
2018-11-28T03:48:47.688Z,4.10
2018-11-28T03:51:14.837Z,4.10
2018-11-28T03:53:41.980Z,4.00
2018-11-28T03:56:09.123Z,4.00
2018-11-28T03:58:36.285Z,4.00
2018-11-28T04:01:03.472Z,4.10
2018-11-28T04:03:30.606Z,4.00
2018-11-28T04:05:57.730Z,3.90
2018-11-28T04:08:24.927Z,4.00
2018-11-28T04:10:52.090Z,4.10
2018-11-28T04:13:19.384Z,4.20
2018-11-28T04:15:46.545Z,4.10
2018-11-28T04:18:13.684Z,4.20
2018-11-28T04:20:40.844Z,4.20
2018-11-28T04:23:07.988Z,4.20
2018-11-28T04:25:35.145Z,4.10
2018-11-28T04:28:02.296Z,4.10
2018-11-28T04:30:29.445Z,4.10
2018-11-28T04:32:56.575Z,4.20
2018-11-28T04:35:23.793Z,4.30
2018-11-28T04:37:50.997Z,4.30
2018-11-28T04:40:19.127Z,4.30
2018-11-28T04:42:47.012Z,4.30
2018-11-28T04:45:17.930Z,4.20
2018-11-28T04:47:45.064Z,4.30
2018-11-28T04:50:12.465Z,4.20
2018-11-28T04:52:39.628Z,4.20
2018-11-28T04:55:09.245Z,4.10
2018-11-28T04:57:36.453Z,4.00
2018-11-28T05:00:06.166Z,3.90
2018-11-28T05:02:33.296Z,3.70
2018-11-28T05:05:00.445Z,3.70
2018-11-28T05:07:28.260Z,3.60
2018-11-28T05:09:56.093Z,3.40
2018-11-28T05:12:23.246Z,3.40
2018-11-28T05:14:50.703Z,3.40
2018-11-28T05:17:17.958Z,3.40
2018-11-28T05:19:45.105Z,3.60
2018-11-28T05:22:12.255Z,3.80
2018-11-28T05:24:39.448Z,4.00
2018-11-28T05:27:06.615Z,4.10
2018-11-28T05:29:33.802Z,4.10
2018-11-28T05:32:00.936Z,4.20
2018-11-28T05:34:28.076Z,4.20
2018-11-28T05:36:55.238Z,4.30
2018-11-28T05:39:22.626Z,4.40
2018-11-28T05:41:49.760Z,4.40
2018-11-28T05:44:16.897Z,4.30
2018-11-28T05:46:44.021Z,4.30
2018-11-28T05:49:15.148Z,4.40
2018-11-28T05:51:38.350Z,4.10
2018-11-28T05:54:05.601Z,4.10
2018-11-28T05:56:32.732Z,4.00
2018-11-28T05:58:59.870Z,3.80
2018-11-28T06:01:27.023Z,3.90
2018-11-28T06:03:54.180Z,3.80
2018-11-28T06:06:21.296Z,3.80
2018-11-28T06:08:48.418Z,3.80
2018-11-28T06:11:15.548Z,3.70
2018-11-28T06:13:42.688Z,3.70
2018-11-28T06:16:09.832Z,3.60
2018-11-28T06:18:36.983Z,3.60
2018-11-28T06:21:04.389Z,3.60
2018-11-28T06:23:31.517Z,3.50
2018-11-28T06:25:59.056Z,3.50
2018-11-28T06:28:26.177Z,3.50
2018-11-28T06:30:53.304Z,3.40
2018-11-28T06:33:20.439Z,3.40
2018-11-28T06:35:47.585Z,3.50
2018-11-28T06:38:14.769Z,3.30
2018-11-28T06:40:41.923Z,3.30
2018-11-28T06:43:09.156Z,3.30
2018-11-28T06:45:36.320Z,3.20
2018-11-28T06:48:03.684Z,3.20
2018-11-28T06:50:30.831Z,3.20
2018-11-28T06:52:58.277Z,3.00
2018-11-28T06:55:25.456Z,3.10
2018-11-28T06:57:52.596Z,3.10
2018-11-28T07:00:20.704Z,3.00
2018-11-28T07:02:48.842Z,3.10
2018-11-28T07:05:16.003Z,3.10
2018-11-28T07:07:43.162Z,3.10
2018-11-28T07:10:14.576Z,3.20
2018-11-28T07:12:41.714Z,3.10
2018-11-28T07:15:10.917Z,3.20
2018-11-28T07:17:38.571Z,3.30
2018-11-28T07:20:07.265Z,3.30
2018-11-28T07:22:34.448Z,3.20
2018-11-28T07:25:01.597Z,3.10
2018-11-28T07:27:28.749Z,3.00
2018-11-28T07:29:55.915Z,3.10
2018-11-28T07:32:23.057Z,3.00
2018-11-28T07:34:50.207Z,2.90
2018-11-28T07:37:17.336Z,2.90
2018-11-28T07:39:44.456Z,3.00
2018-11-28T07:42:11.590Z,2.90
2018-11-28T07:44:38.732Z,3.00
2018-11-28T07:47:05.898Z,3.00
2018-11-28T07:49:33.021Z,2.90
2018-11-28T07:52:00.137Z,3.10
2018-11-28T07:54:27.260Z,3.10
2018-11-28T07:56:54.421Z,3.10
2018-11-28T07:59:22.355Z,3.10
2018-11-28T08:01:49.493Z,3.30
2018-11-28T08:04:16.618Z,3.30
2018-11-28T08:06:43.725Z,3.40
2018-11-28T08:09:10.874Z,3.30
2018-11-28T08:11:38.212Z,3.50
2018-11-28T08:14:05.160Z,3.80
2018-11-28T08:16:32.304Z,4.10
2018-11-28T08:18:59.457Z,4.10
2018-11-28T08:21:26.601Z,4.20
2018-11-28T08:23:53.877Z,4.20
2018-11-28T08:26:21.033Z,4.10
2018-11-28T08:28:48.856Z,4.10
2018-11-28T08:31:16.028Z,4.00
2018-11-28T08:33:43.159Z,3.90
2018-11-28T08:36:10.318Z,3.90
2018-11-28T08:38:37.462Z,4.20
2018-11-28T08:41:04.985Z,4.40
2018-11-28T08:43:32.132Z,4.60
2018-11-28T08:45:59.332Z,4.70
2018-11-28T08:48:26.469Z,4.60
2018-11-28T08:50:53.625Z,4.90
2018-11-28T08:53:20.756Z,5.10
2018-11-28T08:55:47.876Z,5.20
2018-11-28T08:58:15.023Z,5.10
2018-11-28T09:00:42.175Z,4.80
2018-11-28T09:03:09.320Z,4.90
2018-11-28T09:05:36.476Z,5.00
2018-11-28T09:08:03.675Z,5.00
2018-11-28T09:10:30.805Z,4.70
2018-11-28T09:13:03.580Z,4.70
2018-11-28T09:15:26.309Z,4.90
2018-11-28T09:17:53.887Z,5.00
2018-11-28T09:20:21.020Z,5.00
2018-11-28T09:22:48.180Z,4.80
2018-11-28T09:25:16.272Z,4.70
2018-11-28T09:27:50.300Z,4.70
2018-11-28T09:30:18.305Z,4.80
2018-11-28T09:32:46.114Z,4.90
2018-11-28T09:35:13.968Z,5.20
2018-11-28T09:37:45.577Z,5.40
2018-11-28T09:40:11.478Z,5.30
2018-11-28T09:42:38.881Z,5.40
2018-11-28T09:45:07.582Z,5.30
2018-11-28T09:47:34.754Z,5.30
2018-11-28T09:50:01.987Z,5.30
2018-11-28T09:52:29.110Z,5.20
2018-11-28T09:54:56.236Z,5.40
2018-11-28T09:57:23.404Z,5.40
2018-11-28T09:59:50.533Z,5.60
2018-11-28T10:02:17.708Z,5.90
2018-11-28T10:04:44.820Z,6.10
2018-11-28T10:07:11.938Z,6.30
2018-11-28T10:09:39.072Z,6.30
2018-11-28T10:12:13.063Z,6.30
2018-11-28T10:14:40.269Z,6.30
2018-11-28T10:17:07.397Z,6.40
2018-11-28T10:19:34.540Z,6.50
2018-11-28T10:22:01.706Z,6.50
2018-11-28T10:24:29.019Z,6.70
2018-11-28T10:26:56.169Z,6.70
2018-11-28T10:29:23.311Z,6.70
2018-11-28T10:31:50.473Z,6.40
2018-11-28T10:34:17.611Z,6.00
2018-11-28T10:36:44.777Z,5.80
2018-11-28T10:39:11.897Z,6.10
2018-11-28T10:41:39.021Z,6.10
2018-11-28T10:44:06.156Z,5.90
2018-11-28T10:46:33.309Z,5.80
2018-11-28T10:49:00.496Z,6.00
2018-11-28T10:51:27.631Z,6.20
2018-11-28T10:53:54.809Z,6.30
2018-11-28T10:56:21.932Z,6.50
2018-11-28T10:58:49.066Z,6.40
2018-11-28T11:01:24.744Z,6.10
2018-11-28T11:03:54.597Z,6.20
2018-11-28T11:06:27.861Z,6.50
2018-11-28T11:09:01.101Z,6.50
2018-11-28T11:11:34.078Z,6.60
2018-11-28T11:14:06.859Z,6.40
2018-11-28T11:16:34.025Z,6.50
2018-11-28T11:19:01.168Z,6.40
2018-11-28T11:21:28.513Z,6.60
2018-11-28T11:23:55.656Z,6.60
2018-11-28T11:26:22.827Z,6.50
2018-11-28T11:28:49.988Z,6.70
2018-11-28T11:31:17.157Z,6.80
2018-11-28T11:33:44.506Z,6.90
2018-11-28T11:36:11.661Z,6.90
2018-11-28T11:38:38.810Z,6.50
2018-11-28T11:41:05.994Z,6.50
2018-11-28T11:43:33.109Z,6.40
2018-11-28T11:46:00.281Z,6.40
2018-11-28T11:48:27.417Z,6.30
2018-11-28T11:50:54.553Z,6.10
2018-11-28T11:53:21.697Z,5.80
2018-11-28T11:55:48.841Z,5.80
2018-11-28T11:58:16.006Z,5.80
2018-11-28T12:00:44.829Z,6.00
2018-11-28T12:03:12.869Z,6.00
2018-11-28T12:05:47.492Z,6.00
2018-11-28T12:08:14.701Z,6.00
2018-11-28T12:10:41.858Z,6.10
2018-11-28T12:13:09.000Z,6.00
2018-11-28T12:15:36.230Z,5.90
2018-11-28T12:18:03.381Z,5.90
2018-11-28T12:20:34.521Z,5.70
2018-11-28T12:23:01.672Z,5.70
2018-11-28T12:25:28.848Z,5.70
2018-11-28T12:27:55.995Z,5.70
2018-11-28T12:30:23.172Z,5.90
2018-11-28T12:32:50.417Z,6.10
2018-11-28T12:35:18.439Z,6.30
2018-11-28T12:37:45.620Z,6.40
2018-11-28T12:40:13.675Z,6.50
2018-11-28T12:42:41.858Z,6.60
2018-11-28T12:45:12.165Z,6.70
2018-11-28T12:47:39.326Z,6.50
2018-11-28T12:50:11.183Z,6.60
2018-11-28T12:52:38.372Z,6.70
2018-11-28T12:55:06.417Z,6.80
2018-11-28T12:57:33.633Z,6.80
2018-11-28T13:00:00.797Z,7.00
2018-11-28T13:02:27.937Z,6.90
2018-11-28T13:04:59.791Z,6.80
2018-11-28T13:07:22.263Z,7.00
2018-11-28T13:09:49.476Z,7.10
2018-11-28T13:12:16.624Z,7.20
2018-11-28T13:14:43.798Z,7.30
2018-11-28T13:17:10.937Z,7.40
2018-11-28T13:19:38.075Z,7.30
2018-11-28T13:22:05.699Z,7.30
2018-11-28T13:24:32.885Z,7.10
2018-11-28T13:27:00.048Z,7.00
2018-11-28T13:29:27.199Z,7.00
2018-11-28T13:31:54.333Z,7.10
2018-11-28T13:34:21.473Z,7.10
2018-11-28T13:36:48.676Z,7.10
2018-11-28T13:39:15.804Z,7.10
2018-11-28T13:41:42.930Z,7.10
2018-11-28T13:44:10.056Z,7.10
2018-11-28T13:46:40.639Z,7.10
2018-11-28T13:49:07.781Z,7.10
2018-11-28T13:51:34.952Z,6.80
2018-11-28T13:54:20.513Z,6.60
2018-11-28T13:56:58.453Z,6.70
2018-11-28T13:58:56.395Z,6.70
2018-11-28T14:01:23.544Z,6.70
2018-11-28T14:03:50.717Z,6.80
2018-11-28T14:06:17.854Z,6.80
2018-11-28T14:08:45.029Z,6.80
2018-11-28T14:11:12.165Z,6.90
2018-11-28T14:13:39.304Z,7.00
2018-11-28T14:16:06.450Z,6.90
2018-11-28T14:18:33.589Z,6.90
2018-11-28T14:21:00.752Z,6.80
2018-11-28T14:23:27.902Z,6.80
2018-11-28T14:25:55.036Z,6.80
2018-11-28T14:28:22.292Z,6.80
2018-11-28T14:30:49.485Z,6.80
2018-11-28T14:33:16.680Z,6.90
2018-11-28T14:35:43.865Z,6.90
2018-11-28T14:38:11.008Z,6.90
2018-11-28T14:40:38.197Z,6.90
2018-11-28T14:43:06.056Z,6.80
2018-11-28T14:45:33.280Z,6.70
2018-11-28T14:48:00.447Z,6.70
2018-11-28T14:50:28.260Z,6.80
2018-11-28T14:52:56.589Z,6.80
2018-11-28T14:55:29.028Z,6.80
2018-11-28T14:57:56.271Z,6.90
2018-11-28T15:00:25.337Z,7.00
2018-11-28T15:03:08.816Z,6.90
2018-11-28T15:05:45.465Z,6.90
2018-11-28T15:08:14.920Z,6.90
2018-11-28T15:10:48.213Z,6.80
2018-11-28T15:13:15.361Z,6.70
2018-11-28T15:15:42.520Z,6.70
2018-11-28T15:18:09.676Z,6.60
2018-11-28T15:20:36.817Z,6.60
2018-11-28T15:23:03.964Z,6.50
2018-11-28T15:25:31.092Z,6.50
2018-11-28T15:27:58.455Z,6.40
2018-11-28T15:30:25.633Z,6.40
2018-11-28T15:32:52.860Z,6.40
2018-11-28T15:35:20.021Z,6.40
2018-11-28T15:37:47.173Z,6.50
2018-11-28T15:40:14.341Z,6.60
2018-11-28T15:42:41.508Z,6.50
2018-11-28T15:45:08.982Z,6.40
2018-11-28T15:47:36.129Z,6.50
2018-11-28T15:50:03.353Z,6.60
2018-11-28T15:52:30.512Z,6.60
2018-11-28T15:54:57.703Z,6.60
2018-11-28T15:57:24.831Z,6.40
2018-11-28T15:59:51.997Z,6.30
2018-11-28T16:02:19.188Z,6.30
2018-11-28T16:04:46.379Z,6.40
2018-11-28T16:07:13.623Z,6.40
2018-11-28T16:09:46.467Z,6.40
2018-11-28T16:12:13.629Z,6.40
2018-11-28T16:14:40.834Z,6.40
2018-11-28T16:17:07.975Z,6.50
2018-11-28T16:19:35.151Z,6.40
2018-11-28T16:22:02.379Z,6.50
2018-11-28T16:24:29.567Z,6.50
2018-11-28T16:26:56.749Z,6.50
2018-11-28T16:29:23.981Z,6.60
2018-11-28T16:31:51.159Z,6.50
2018-11-28T16:34:18.302Z,6.60
2018-11-28T16:36:45.490Z,6.60
2018-11-28T16:39:12.629Z,6.60
2018-11-28T16:41:39.766Z,6.60
2018-11-28T16:44:06.926Z,6.60
2018-11-28T16:46:34.075Z,6.50
2018-11-28T16:49:01.208Z,6.50
2018-11-28T16:51:28.362Z,6.40
2018-11-28T16:53:55.495Z,6.40
2018-11-28T16:56:22.620Z,6.40
2018-11-28T16:58:49.756Z,6.40
2018-11-28T17:01:16.917Z,6.50
2018-11-28T17:03:44.065Z,6.50
2018-11-28T17:06:11.194Z,6.50
2018-11-28T17:08:38.347Z,6.50
2018-11-28T17:11:05.540Z,6.50
2018-11-28T17:13:32.711Z,6.60
2018-11-28T17:15:59.876Z,6.60
2018-11-28T17:18:27.040Z,6.60
2018-11-28T17:20:54.197Z,6.60
2018-11-28T17:23:21.359Z,6.70
2018-11-28T17:25:48.503Z,6.70
2018-11-28T17:28:15.634Z,6.60
2018-11-28T17:30:42.867Z,6.60
2018-11-28T17:33:09.984Z,6.60
2018-11-28T17:35:37.132Z,6.50
2018-11-28T17:38:04.990Z,6.60
2018-11-28T17:40:34.979Z,6.50
2018-11-28T17:43:02.172Z,6.50
2018-11-28T17:45:29.465Z,6.60
2018-11-28T17:47:56.641Z,6.60
2018-11-28T17:50:24.814Z,6.50
2018-11-28T17:52:58.636Z,6.30
2018-11-28T17:55:26.885Z,6.40
2018-11-28T17:57:54.055Z,6.50
2018-11-28T18:00:21.229Z,6.50
2018-11-28T18:02:48.409Z,6.60
2018-11-28T18:05:15.588Z,6.70
2018-11-28T18:07:42.749Z,6.50
2018-11-28T18:10:13.216Z,6.50
2018-11-28T18:12:52.091Z,6.50
2018-11-28T18:15:19.457Z,6.50
2018-11-28T18:17:46.644Z,6.50
2018-11-28T18:20:13.837Z,6.50
2018-11-28T18:22:41.013Z,6.40
2018-11-28T18:25:08.967Z,6.40
2018-11-28T18:27:36.126Z,6.40
2018-11-28T18:30:03.537Z,6.40
2018-11-28T18:32:30.705Z,6.40
2018-11-28T18:34:57.885Z,6.40
2018-11-28T18:37:25.028Z,6.50
2018-11-28T18:39:52.185Z,6.40
2018-11-28T18:42:19.358Z,6.60
2018-11-28T18:44:46.664Z,6.60
2018-11-28T18:47:13.869Z,6.50
2018-11-28T18:49:41.075Z,6.50
2018-11-28T18:52:08.225Z,6.40
2018-11-28T18:54:35.370Z,6.50
2018-11-28T18:57:02.542Z,6.50
2018-11-28T18:59:29.736Z,6.50
2018-11-28T19:01:56.909Z,6.50
2018-11-28T19:04:24.100Z,6.50
2018-11-28T19:06:51.244Z,6.50
2018-11-28T19:09:24.193Z,6.50
2018-11-28T19:11:51.322Z,6.50
2018-11-28T19:14:18.488Z,6.50
2018-11-28T19:16:46.325Z,6.50
2018-11-28T19:19:13.526Z,6.60
2018-11-28T19:21:40.672Z,6.60
2018-11-28T19:24:07.917Z,6.70
2018-11-28T19:26:35.066Z,6.70
2018-11-28T19:29:02.258Z,6.70
2018-11-28T19:31:29.437Z,6.70
2018-11-28T19:33:56.733Z,6.70
2018-11-28T19:36:23.864Z,6.70
2018-11-28T19:38:51.021Z,6.60
2018-11-28T19:41:22.059Z,6.60
2018-11-28T19:43:49.457Z,6.60
2018-11-28T19:46:16.589Z,6.60
2018-11-28T19:48:43.728Z,6.60
2018-11-28T19:51:10.919Z,6.70
2018-11-28T19:53:38.061Z,6.70
2018-11-28T19:56:05.694Z,6.70
2018-11-28T19:58:32.825Z,6.80
2018-11-28T20:01:00.032Z,6.70
2018-11-28T20:03:27.192Z,6.80
2018-11-28T20:05:54.369Z,6.70
2018-11-28T20:08:21.541Z,6.70
2018-11-28T20:10:48.698Z,6.70
2018-11-28T20:13:16.382Z,6.60
2018-11-28T20:15:45.717Z,6.70
2018-11-28T20:18:12.877Z,6.70
2018-11-28T20:20:40.033Z,6.50
2018-11-28T20:23:07.477Z,6.40
2018-11-28T20:25:34.721Z,6.30
2018-11-28T20:28:01.845Z,6.40
2018-11-28T20:30:37.537Z,6.40
2018-11-28T20:33:05.215Z,6.30
2018-11-28T20:35:32.384Z,6.20
2018-11-28T20:37:59.660Z,6.20
2018-11-28T20:40:26.833Z,6.20
2018-11-28T20:42:54.592Z,6.20
2018-11-28T20:45:21.751Z,6.20
2018-11-28T20:47:48.961Z,6.20
2018-11-28T20:50:19.328Z,6.10
2018-11-28T20:52:54.781Z,6.10
2018-11-28T20:55:17.975Z,6.20
2018-11-28T20:57:46.028Z,6.10
2018-11-28T21:00:20.445Z,6.20
2018-11-28T21:02:49.274Z,6.30
2018-11-28T21:05:17.571Z,6.10
2018-11-28T21:07:45.887Z,6.40
2018-11-28T21:10:20.469Z,6.40
2018-11-28T21:12:48.458Z,6.30
2018-11-28T21:15:16.592Z,6.20
2018-11-28T21:17:45.103Z,6.20
2018-11-28T21:20:14.348Z,6.30
2018-11-28T21:22:42.218Z,6.20
2018-11-28T21:25:10.412Z,6.30
2018-11-28T21:27:37.565Z,6.00
2018-11-28T21:30:08.911Z,6.00
2018-11-28T21:32:36.065Z,6.10
2018-11-28T21:35:03.577Z,5.90
2018-11-28T21:37:30.752Z,6.00
2018-11-28T21:39:57.919Z,5.90
2018-11-28T21:42:25.037Z,5.70
2018-11-28T21:44:52.173Z,5.70
2018-11-28T21:47:19.552Z,5.70
2018-11-28T21:49:46.725Z,5.40
2018-11-28T21:52:13.936Z,5.40
2018-11-28T21:54:41.100Z,5.40
2018-11-28T21:57:08.239Z,5.50
2018-11-28T21:59:35.406Z,5.90
2018-11-28T22:02:02.630Z,5.80
2018-11-28T22:04:29.760Z,5.90
2018-11-28T22:06:56.888Z,5.90
2018-11-28T22:09:24.093Z,5.90
2018-11-28T22:11:51.217Z,5.90
2018-11-28T22:14:18.369Z,5.90
2018-11-28T22:16:45.530Z,6.00
2018-11-28T22:19:12.672Z,6.00
2018-11-28T22:21:39.864Z,6.00
2018-11-28T22:24:07.004Z,6.00
2018-11-28T22:26:34.133Z,6.10
2018-11-28T22:29:01.260Z,6.10
2018-11-28T22:31:28.578Z,6.20
2018-11-28T22:33:55.701Z,6.10
2018-11-28T22:36:22.904Z,6.10
2018-11-28T22:38:50.047Z,6.10
2018-11-28T22:41:17.236Z,6.10
2018-11-28T22:43:44.381Z,6.20
2018-11-28T22:46:11.552Z,6.20
2018-11-28T22:48:38.688Z,6.20
2018-11-28T22:51:05.829Z,6.10
2018-11-28T22:53:32.971Z,6.10
2018-11-28T22:56:00.139Z,6.20
2018-11-28T22:58:27.289Z,6.00
2018-11-28T23:01:00.130Z,5.80
2018-11-28T23:03:27.268Z,5.80
2018-11-28T23:05:54.416Z,5.60
2018-11-28T23:08:21.669Z,5.50
2018-11-28T23:10:49.720Z,5.40
2018-11-28T23:13:19.221Z,5.30
2018-11-28T23:15:46.504Z,5.30
2018-11-28T23:18:13.654Z,5.30
2018-11-28T23:20:40.791Z,5.30
2018-11-28T23:23:08.240Z,5.30
2018-11-28T23:25:35.836Z,5.30
2018-11-28T23:28:02.988Z,5.30
2018-11-28T23:30:30.152Z,5.30
2018-11-28T23:32:57.310Z,5.20
2018-11-28T23:35:24.736Z,5.20
2018-11-28T23:37:51.905Z,5.30
2018-11-28T23:40:21.904Z,5.40
2018-11-28T23:42:49.508Z,5.20
2018-11-28T23:45:16.775Z,5.30
2018-11-28T23:47:43.920Z,5.30
2018-11-28T23:50:13.042Z,5.40
2018-11-28T23:52:40.185Z,5.40
2018-11-28T23:55:14.622Z,5.40
2018-11-28T23:57:42.061Z,5.40
